Flight Track Log - Related Links

Times and Time Zones

All times are in EDT time to prevent confusion due to time zone crossing. See the AAY863 flight status page for this flight to view local times or setup timezone preferences in your user account.

Time Position Orientation Groundspeed Altitude Reporting Facility
EDT Latitude Longitude Course Direction KTS MPH feet Rate Location/Type
Sun 05:42:47 PM 41.8681 -91.8267 137° Southeast 181 208 4,300  Level Chicago Center
Sun 05:43:49 PM 41.8281 -91.8919 231° Southwest 235 270 6,200 2,274 Climbing Chicago Center
Sun 05:44:51 PM 41.7642 -91.8406 149° Southeast 267 307 9,000 2,274 Climbing Chicago Center
Sun 05:45:53 PM 41.6983 -91.7769 144° Southeast 291 335 10,900 1,790 Climbing Chicago Center
Sun 05:46:55 PM 41.6089 -91.6769 140° Southeast 354 407 12,700 1,935 Climbing Chicago Center
Sun 05:47:00 PM 41.2794 -91.3323 137° Southeast  Level FlightAware Approximate
Sun 05:47:57 PM 41.5250 -91.5828 140° Southeast 386 444 14,900  Level Chicago Center
Sun 05:48:00 PM 41.1745 -91.2013 137° Southeast  Level FlightAware Approximate
Sun 05:48:58 PM 41.4394 -91.4858 140° Southeast 400 460 17,000  Level Chicago Center
Sun 05:50:00 PM 41.3522 -91.3861 139° Southeast 411 473 19,100 1,790 Climbing Chicago Center
Sun 05:51:02 PM 41.2586 -91.2817 140° Southeast 431 496 20,700 1,597 Climbing Chicago Center
Sun 05:52:04 PM 41.1644 -91.1742 139° Southeast 442 509 22,400 1,597 Climbing Chicago Center
Sun 05:53:06 PM 41.0469 -91.0442 140° Southeast 456 525 24,000 774 Climbing Chicago Center
Sun 05:54:08 PM 40.9450 -90.9389 142° Southeast 464 534 24,000 48 Level Chicago Center
Sun 05:55:10 PM 40.8406 -90.8408 145° Southeast 464 534 24,100 774 Climbing Chicago Center
Sun 05:56:12 PM 40.7375 -90.7417 144° Southeast 463 533 25,600 1,548 Climbing Chicago Center
Sun 05:57:14 PM 40.6331 -90.6417 144° Southeast 463 533 27,300 1,887 Climbing Chicago Center
Sun 05:58:16 PM 40.5114 -90.5261 144° Southeast 455 524 29,500 1,597 Climbing Chicago Center
Sun 05:59:18 PM 40.4122 -90.4331 144° Southeast 444 511 30,600 1,016 Climbing Chicago Center
Sun 06:00:20 PM 40.3111 -90.3378 144° Southeast 447 514 31,600 823 Climbing Chicago Center
Sun 06:01:22 PM 40.2122 -90.2439 144° Southeast 446 513 32,300 677 Climbing Chicago Center
Sun 06:02:24 PM 40.1103 -90.1489 145° Southeast 448 516 33,000 339 Climbing Chicago Center
Sun 06:03:26 PM 40.0081 -90.0536 144° Southeast 451 519 33,000  Level Chicago Center
Sun 06:04:28 PM 39.8872 -89.9406 144° Southeast 449 517 33,000  Level Chicago Center
Sun 06:05:30 PM 39.7856 -89.8481 145° Southeast 449 517 33,000  Level Chicago Center
Sun 06:06:32 PM 39.6847 -89.7544 144° Southeast 448 516 33,000  Level Chicago Center
Sun 06:07:34 PM 39.5842 -89.6622 145° Southeast 446 513 33,000  Level Chicago Center
Sun 06:08:36 PM 39.4836 -89.5689 144° Southeast 446 513 33,000  Level Chicago Center
Sun 06:09:38 PM 39.3819 -89.4753 145° Southeast 447 514 33,000  Level Chicago Center
Sun 06:10:40 PM 39.2581 -89.3653 145° Southeast 450 518 33,000  Level Chicago Center
Sun 06:11:42 PM 39.1561 -89.2717 145° Southeast 450 518 33,000  Level Chicago Center
Sun 06:12:43 PM 39.0528 -89.1803 146° Southeast 451 519 33,000  Level Chicago Center
Sun 06:13:33 PM 38.9750 -89.1108 145° Southeast 450 518 33,000  Level Indianapolis Center
Sun 06:14:12 PM 38.9092 -89.0508 145° Southeast 451 519 33,000  Level Kansas City Center
Sun 06:15:13 PM 38.8081 -88.9594 145° Southeast 441 507 33,000  Level Kansas City Center
Sun 06:16:17 PM 38.7069 -88.8689 145° Southeast 440 506 33,000  Level Kansas City Center
Sun 06:17:18 PM 38.5881 -88.7642 145° Southeast 441 507 33,000  Level Kansas City Center
Sun 06:18:19 PM 38.4767 -88.6669 146° Southeast 445 512 33,000  Level Kansas City Center
Sun 06:19:23 PM 38.3806 -88.5856 146° Southeast 444 511 33,000  Level Kansas City Center
Sun 06:20:24 PM 38.2786 -88.4958 145° Southeast 444 511 33,000  Level Kansas City Center
Sun 06:21:28 PM 38.1742 -88.4064 146° Southeast 445 512 33,000  Level Kansas City Center
Sun 06:22:29 PM 38.0517 -88.2967 145° Southeast 446 513 33,000  Level Kansas City Center
Sun 06:23:30 PM 37.9503 -88.2086 146° Southeast 443 510 33,000  Level Kansas City Center
Sun 06:24:34 PM 37.8467 -88.1200 146° Southeast 444 511 33,000  Level Kansas City Center
Sun 06:25:34 PM 37.7422 -88.0297 146° Southeast 449 517 33,000  Level Kansas City Center
Sun 06:27:00 PM 37.5919 -87.9014 146° Southeast 450 518 33,000  Level Indianapolis Center
Sun 06:28:02 PM 37.4858 -87.8092 145° Southeast 453 521 33,000  Level Indianapolis Center
Sun 06:29:04 PM 37.3792 -87.7197 146° Southeast 455 524 33,000  Level Indianapolis Center
Sun 06:30:04 PM 37.2903 -87.6039 134° Southeast 453 521 33,000  Level Memphis Center
Sun 06:31:06 PM 37.2317 -87.4581 117° Southeast 464 534 33,000  Level Memphis Center
Sun 06:32:08 PM 37.1592 -87.2881 118° Southeast 464 534 33,000  Level Memphis Center
Sun 06:33:10 PM 37.0958 -87.1422 119° Southeast 466 536 33,000  Level Memphis Center
Sun 06:34:12 PM 37.0378 -86.9939 116° Southeast 466 536 33,000  Level Memphis Center
Sun 06:35:14 PM 36.9669 -86.8536 122° Southeast 473 544 33,000  Level Memphis Center
Sun 06:36:16 PM 36.8728 -86.7339 134° Southeast 475 547 33,000  Level Memphis Center
Sun 06:37:18 PM 36.7825 -86.6111 133° Southeast 475 547 33,000  Level Memphis Center
Sun 06:38:20 PM 36.7092 -86.4686 123° Southeast 477 549 33,000  Level Memphis Center
Sun 06:39:22 PM 36.6192 -86.3447 132° Southeast 477 549 33,000  Level Memphis Center
Sun 06:40:24 PM 36.5139 -86.2428 142° Southeast 475 547 33,000  Level Memphis Center
Sun 06:41:25 PM 36.3997 -86.1586 149° Southeast 472 543 33,000  Level Memphis Center
Sun 06:42:27 PM 36.2856 -86.0733 149° Southeast 472 543 33,000  Level Memphis Center
Sun 06:43:29 PM 36.1375 -86.0267 166° South 469 540 33,000  Level Memphis Center
Sun 06:44:31 PM 36.0108 -85.9925 168° South 463 533 33,000  Level Memphis Center
Sun 06:45:33 PM 35.8861 -85.9583 167° South 459 528 33,000  Level Memphis Center
Sun 06:46:35 PM 35.7589 -85.9233 167° South 458 527 33,000  Level Memphis Center
Sun 06:47:37 PM 35.6336 -85.8892 168° South 459 528 33,000  Level Memphis Center
Sun 06:48:39 PM 35.5197 -85.8569 167° South 458 527 33,000  Level Memphis Center
Sun 06:49:41 PM 35.3703 -85.8172 168° South 458 527 33,000  Level Memphis Center
Sun 06:50:42 PM 35.2467 -85.7831 167° South 458 527 33,000  Level Memphis Center
Sun 06:51:44 PM 35.1231 -85.7506 168° South 458 527 33,000  Level Memphis Center
Sun 06:52:46 PM 34.9997 -85.7161 167° South 458 527 33,000  Level Memphis Center
Sun 06:53:59 PM 34.8519 -85.6689 165° South 459 528 33,000  Level Atlanta Center
Sun 06:54:59 PM 34.7272 -85.6311 166° South 459 528 33,000  Level Atlanta Center
Sun 06:55:59 PM 34.6047 -85.5908 165° South 454 522 33,000  Level Atlanta Center
Sun 06:56:59 PM 34.4842 -85.5558 167° South 454 522 33,000  Level Atlanta Center
Sun 06:57:59 PM 34.3489 -85.5131 165° South 454 522 33,000  Level Atlanta Center
Sun 06:58:59 PM 34.2264 -85.4758 166° South 454 522 33,000  Level Atlanta Center
Sun 06:59:59 PM 34.1036 -85.4361 165° South 454 522 33,000  Level Atlanta Center
Sun 07:00:59 PM 33.9831 -85.3992 166° South 454 522 33,000  Level Atlanta Center
Sun 07:01:59 PM 33.8581 -85.3622 166° South 454 522 33,000  Level Atlanta Center
Sun 07:02:59 PM 33.7353 -85.3253 166° South 454 522 33,000  Level Atlanta Center
Sun 07:03:59 PM 33.6125 -85.2861 165° South 454 522 33,000  Level Atlanta Center
Sun 07:04:59 PM 33.4897 -85.2494 166° South 454 522 33,000  Level Atlanta Center
Sun 07:05:59 PM 33.3692 -85.2128 166° South 454 522 33,000  Level Atlanta Center
Sun 07:06:59 PM 33.2464 -85.1764 166° South 454 522 33,000  Level Atlanta Center
Sun 07:07:59 PM 33.1256 -85.1378 165° South 454 522 33,000  Level Atlanta Center
Sun 07:08:59 PM 33.0050 -85.0989 165° South 449 517 33,000  Level Atlanta Center
Sun 07:09:59 PM 32.8842 -85.0653 167° South 449 517 33,000  Level Atlanta Center
Sun 07:10:59 PM 32.7739 -85.0244 163° South 454 522 33,000  Level Atlanta Center
Sun 07:11:59 PM 32.6531 -84.9886 166° South 453 521 33,000  Level Atlanta Center
Sun 07:12:59 PM 32.5219 -84.9478 165° South 453 521 33,000  Level Atlanta Center
Sun 07:13:59 PM 32.4011 -84.9147 167° South 459 528 33,000  Level Atlanta Center
Sun 07:14:59 PM 32.2761 -84.8767 166° South 454 522 33,000  Level Atlanta Center
Sun 07:15:59 PM 32.1511 -84.8458 168° South 454 522 33,000  Level Atlanta Center
Sun 07:17:54 PM 31.9000 -84.7669 165° South 465 535 33,000  Level Jacksonville Center
Sun 07:18:54 PM 31.7753 -84.7303 166° South 465 535 33,000  Level Jacksonville Center
Sun 07:19:54 PM 31.6547 -84.6936 165° South 465 535 33,000  Level Jacksonville Center
Sun 07:20:54 PM 31.5300 -84.6597 167° South 465 535 33,000  Level Jacksonville Center
Sun 07:21:54 PM 31.4094 -84.6161 163° South 465 535 33,000  Level Jacksonville Center
Sun 07:22:54 PM 31.2892 -84.5603 158° South 465 535 33,000  Level Jacksonville Center
Sun 07:23:54 PM 31.1686 -84.5047 158° South 465 535 33,000  Level Jacksonville Center
Sun 07:24:54 PM 31.0503 -84.4494 158° South 465 535 33,000  Level Jacksonville Center
Sun 07:25:54 PM 30.9300 -84.3967 159° South 466 536 33,000  Level Jacksonville Center
Sun 07:26:54 PM 30.8200 -84.3439 158° South 466 536 33,000  Level Jacksonville Center
Sun 07:27:54 PM 30.7014 -84.2914 159° South 466 536 33,000  Level Jacksonville Center
Sun 07:28:54 PM 30.5808 -84.2367 159° South 466 536 33,000  Level Jacksonville Center
Sun 07:29:54 PM 30.4647 -84.1844 159° South 466 536 33,000 -50 Level Jacksonville Center
Sun 07:30:54 PM 30.3481 -84.1322 159° South 458 527 32,900  Descending Jacksonville Center
Sun 07:31:54 PM 30.2275 -84.0778 159° South 458 527 33,000 50 Climbing Jacksonville Center
Sun 07:32:54 PM 30.1050 -84.0233 159° South 464 534 33,000 -50 Level Jacksonville Center
Sun 07:33:54 PM 29.9822 -83.9742 161° South 464 534 32,900  Descending Jacksonville Center
Sun 07:34:54 PM 29.8572 -83.9439 168° South 464 534 33,000  Climbing Jacksonville Center
Sun 07:35:54 PM 29.7322 -83.9019 164° South 464 534 32,900  Descending Jacksonville Center
Sun 07:36:54 PM 29.6117 -83.8458 158° South 464 534 33,000 50 Climbing Jacksonville Center
Sun 07:37:54 PM 29.4908 -83.7897 158° South 464 534 33,000 -950 Level Jacksonville Center
Sun 07:38:54 PM 29.3681 -83.7314 158° South 469 540 31,100 -2,100 Descending Jacksonville Center
Sun 07:39:54 PM 29.2411 -83.6731 158° South 475 547 28,800 -2,400 Descending Jacksonville Center
Sun 07:40:54 PM 29.1183 -83.6200 159° South 480 552 26,300 -2,400 Descending Jacksonville Center
Sun 07:41:54 PM 29.0017 -83.5717 160° South 468 539 24,000 -2,300 Descending Jacksonville Center
Sun 07:42:54 PM 28.9019 -83.4950 146° Southeast 445 512 21,700 -2,250 Descending Jacksonville Center
Sun 07:43:54 PM 28.8167 -83.4044 137° Southeast 427 491 19,500 -2,100 Descending Jacksonville Center
Sun 07:44:54 PM 28.7336 -83.3236 140° Southeast 413 475 17,500 -2,207 Descending Jacksonville Center
Sun 07:46:48 PM 28.5833 -83.1667 137° Southeast 357 411 13,100 -1,552 Descending Tampa TRACON
Sun 07:47:48 PM 28.5167 -83.1000 139° Southeast 321 369 13,000 -50 Descending Tampa TRACON
Sun 07:48:48 PM 28.4500 -83.0333 139° Southeast 315 362 13,000 -368 Level Tampa TRACON
Sun 07:49:42 PM 28.3833 -82.9667 139° Southeast 307 353 12,300 -1,132 Descending Tampa TRACON
Sun 07:50:34 PM 28.3450 -82.9164 131° Southeast 290 334 11,000 -1,487 Descending Miami Center
Sun 07:51:35 PM 28.2886 -82.8544 136° Southeast 285 328 9,500 -1,721 Descending Miami Center
Sun 07:52:36 PM 28.2333 -82.7936 136° Southeast 279 321 7,500 -1,951 Descending Miami Center
Sun 07:53:38 PM 28.1797 -82.7347 136° Southeast 273 314 5,500 -1,707 Descending Miami Center
Sun 07:54:39 PM 28.1169 -82.7011 155° Southeast 253 291 4,000 -1,475 Descending Miami Center
Sun 07:55:40 PM 28.0544 -82.6825 165° South 244 281 2,500 -1,328 Descending Miami Center
Sun 07:56:41 PM 28.0039 -82.6653 163° South 214 246 1,300 -885 Descending Miami Center
Sun 07:57:42 PM 27.9611 -82.6883 205° Southwest 190 219 700 -488 Descending Miami Center
Sun 07:58:44 PM 27.9161 -82.6997 193° South 173 199 300 -387 Descending Miami Center

Login

Don't have an account? Register now (free) for customized features, flight alerts, and more!